createdAt,value
2018-04-15T00:01:26.026Z,15.19
2018-04-15T00:03:53.810Z,15.16
2018-04-15T00:06:20.938Z,15.19
2018-04-15T00:08:48.044Z,15.24
2018-04-15T00:11:15.204Z,15.32
2018-04-15T00:13:42.231Z,15.34
2018-04-15T00:16:09.239Z,15.40
2018-04-15T00:18:36.274Z,15.36
2018-04-15T00:21:04.164Z,15.36
2018-04-15T00:23:31.212Z,15.46
2018-04-15T00:25:58.264Z,15.44
2018-04-15T00:28:25.383Z,15.49
2018-04-15T00:30:53.145Z,15.54
2018-04-15T00:33:20.931Z,15.61
2018-04-15T00:35:48.703Z,15.59
2018-04-15T00:38:15.723Z,15.62
2018-04-15T00:40:43.830Z,15.69
2018-04-15T00:43:10.822Z,15.69
2018-04-15T00:45:37.894Z,15.67
2018-04-15T00:48:05.667Z,15.66
2018-04-15T00:50:32.729Z,15.67
2018-04-15T00:52:59.749Z,15.64
2018-04-15T00:55:27.511Z,15.56
2018-04-15T00:57:54.536Z,15.60
2018-04-15T01:00:21.580Z,15.61
2018-04-15T01:02:48.587Z,15.67
2018-04-15T01:05:15.657Z,15.65
2018-04-15T01:07:42.675Z,15.73
2018-04-15T01:10:10.556Z,15.80
2018-04-15T01:12:37.605Z,15.77
2018-04-15T01:15:04.751Z,15.73
2018-04-15T01:17:31.813Z,15.70
2018-04-15T01:19:58.860Z,15.70
2018-04-15T01:22:25.860Z,15.67
2018-04-15T01:24:53.648Z,15.71
2018-04-15T01:27:20.726Z,15.67
2018-04-15T01:29:47.765Z,15.77
2018-04-15T01:32:14.790Z,15.67
2018-04-15T01:34:42.547Z,15.70
2018-04-15T01:37:10.300Z,15.63
2018-04-15T01:39:37.284Z,15.60
2018-04-15T01:42:04.286Z,15.76
2018-04-15T01:44:31.255Z,15.84
2018-04-15T01:46:59.405Z,15.80
2018-04-15T01:49:27.445Z,15.74
2018-04-15T01:51:54.564Z,15.69
2018-04-15T01:54:21.551Z,15.65
2018-04-15T01:56:48.730Z,15.72
2018-04-15T01:59:15.749Z,15.99
2018-04-15T02:01:44.154Z,15.88
2018-04-15T02:04:11.216Z,15.73
2018-04-15T02:06:39.037Z,15.77
2018-04-15T02:09:06.065Z,15.75
2018-04-15T02:11:33.120Z,15.95
2018-04-15T02:14:00.183Z,16.07
2018-04-15T02:16:27.155Z,16.05
2018-04-15T02:18:54.209Z,16.14
2018-04-15T02:21:22.757Z,16.05
2018-04-15T02:23:50.357Z,15.88
2018-04-15T02:26:18.136Z,16.10
2018-04-15T02:28:45.169Z,16.02
2018-04-15T02:31:12.960Z,15.89
2018-04-15T02:33:40.000Z,15.91
2018-04-15T02:36:06.974Z,15.95
2018-04-15T02:38:34.028Z,16.03
2018-04-15T02:41:01.060Z,16.01
2018-04-15T02:43:28.094Z,16.01
2018-04-15T02:45:55.185Z,16.07
2018-04-15T02:48:22.175Z,15.98
2018-04-15T02:50:49.243Z,15.89
2018-04-15T02:53:16.339Z,15.78
2018-04-15T02:55:43.446Z,15.55
2018-04-15T02:58:10.544Z,15.45
2018-04-15T03:00:37.574Z,15.66
2018-04-15T03:03:04.618Z,15.56
2018-04-15T03:05:31.621Z,15.45
2018-04-15T03:07:58.674Z,15.45
2018-04-15T03:10:25.799Z,15.29
2018-04-15T03:12:53.584Z,15.24
2018-04-15T03:15:20.643Z,15.28
2018-04-15T03:17:47.711Z,15.46
2018-04-15T03:20:14.765Z,15.39
2018-04-15T03:22:41.811Z,15.38
2018-04-15T03:25:08.830Z,15.41
2018-04-15T03:27:35.863Z,15.41
2018-04-15T03:30:03.991Z,15.30
2018-04-15T03:32:31.028Z,15.26
2018-04-15T03:34:58.039Z,15.35
2018-04-15T03:37:25.091Z,15.41
2018-04-15T03:39:52.107Z,15.37
2018-04-15T03:42:19.883Z,15.32
2018-04-15T03:44:47.745Z,15.24
2018-04-15T03:47:15.533Z,15.14
2018-04-15T03:49:42.586Z,15.00
2018-04-15T03:52:09.620Z,14.86
2018-04-15T03:54:36.705Z,14.91
2018-04-15T03:57:03.915Z,15.06
2018-04-15T03:59:31.071Z,15.27
2018-04-15T04:01:58.123Z,15.56
2018-04-15T04:04:25.148Z,15.53
2018-04-15T04:06:52.178Z,15.45
2018-04-15T04:09:19.960Z,15.21
2018-04-15T04:11:47.771Z,15.04
2018-04-15T04:14:14.826Z,14.95
2018-04-15T04:16:41.883Z,14.92
2018-04-15T04:19:26.973Z,15.06
2018-04-15T04:22:12.091Z,15.34
2018-04-15T04:24:57.430Z,15.50
2018-04-15T04:27:25.358Z,15.18
2018-04-15T04:29:52.331Z,15.01
2018-04-15T04:32:19.291Z,14.83
2018-04-15T04:34:46.333Z,14.65
2018-04-15T04:37:13.303Z,14.49
2018-04-15T04:39:41.061Z,14.43
2018-04-15T04:42:08.766Z,14.44
2018-04-15T04:44:35.741Z,14.34
2018-04-15T04:47:02.738Z,14.28
2018-04-15T04:49:29.790Z,14.18
2018-04-15T04:51:57.575Z,14.07
2018-04-15T04:54:24.628Z,14.06
2018-04-15T04:56:51.671Z,14.12
2018-04-15T04:59:18.727Z,14.28
2018-04-15T05:01:45.805Z,14.19
2018-04-15T05:04:13.588Z,14.23
2018-04-15T05:06:40.643Z,14.30
2018-04-15T05:09:07.688Z,14.34
2018-04-15T05:11:34.715Z,14.63
2018-04-15T05:14:02.518Z,14.76
2018-04-15T05:16:29.478Z,14.68
2018-04-15T05:18:56.471Z,14.63
2018-04-15T05:21:23.451Z,14.74
2018-04-15T05:23:50.461Z,14.92
2018-04-15T05:26:18.188Z,14.93
2018-04-15T05:28:45.168Z,14.95
2018-04-15T05:31:12.215Z,14.94
2018-04-15T05:33:39.241Z,14.93
2018-04-15T05:36:06.324Z,14.99
2018-04-15T05:38:33.365Z,15.15
2018-04-15T05:41:01.159Z,15.12
2018-04-15T05:43:28.290Z,15.06
2018-04-15T05:45:56.066Z,15.01
2018-04-15T05:48:23.118Z,14.93
2018-04-15T05:50:50.165Z,14.88
2018-04-15T05:53:17.226Z,14.85
2018-04-15T05:55:44.279Z,14.84
2018-04-15T05:58:11.366Z,14.81
2018-04-15T06:00:39.190Z,14.70
2018-04-15T06:03:06.283Z,14.58
2018-04-15T06:05:33.363Z,14.51
2018-04-15T06:08:00.393Z,14.66
2018-04-15T06:10:28.183Z,14.86
2018-04-15T06:12:55.195Z,14.88
2018-04-15T06:15:23.029Z,15.16
2018-04-15T06:17:50.084Z,15.41
2018-04-15T06:20:17.138Z,15.29
2018-04-15T06:22:44.181Z,15.26
2018-04-15T06:25:11.223Z,15.34
2018-04-15T06:27:38.264Z,15.44
2018-04-15T06:30:05.351Z,15.56
2018-04-15T06:32:32.398Z,15.69
2018-04-15T06:35:00.185Z,15.61
2018-04-15T06:37:27.221Z,15.64
2018-04-15T06:39:55.024Z,15.76
2018-04-15T06:42:22.048Z,15.87
2018-04-15T06:44:49.178Z,15.79
2018-04-15T06:47:16.930Z,15.79
2018-04-15T06:49:43.973Z,16.02
2018-04-15T06:52:11.029Z,15.96
2018-04-15T06:54:38.035Z,16.02
2018-04-15T06:57:05.088Z,16.12
2018-04-15T06:59:32.128Z,16.32
2018-04-15T07:01:59.255Z,16.41
2018-04-15T07:04:26.474Z,16.55
2018-04-15T07:06:54.282Z,16.71
2018-04-15T07:09:21.422Z,17.03
2018-04-15T07:11:48.498Z,17.22
2018-04-15T07:14:15.599Z,17.22
2018-04-15T07:16:43.421Z,17.14
2018-04-15T07:19:10.536Z,17.36
2018-04-15T07:21:37.821Z,17.45
2018-04-15T07:24:04.900Z,17.49
2018-04-15T07:26:32.710Z,17.60
2018-04-15T07:28:59.764Z,17.74
2018-04-15T07:31:26.779Z,17.97
2018-04-15T07:33:54.535Z,18.04
2018-04-15T07:36:22.373Z,17.92
2018-04-15T07:38:49.438Z,17.89
2018-04-15T07:41:17.360Z,17.89
2018-04-15T07:43:44.445Z,17.93
2018-04-15T07:46:11.567Z,17.92
2018-04-15T07:48:38.700Z,17.98
2018-04-15T07:51:05.800Z,17.97
2018-04-15T07:53:32.880Z,17.85
2018-04-15T07:55:59.920Z,17.87
2018-04-15T07:58:26.904Z,17.84
2018-04-15T08:00:53.928Z,17.76
2018-04-15T08:03:20.907Z,17.78
2018-04-15T08:05:47.891Z,17.73
2018-04-15T08:08:14.869Z,17.68
2018-04-15T08:10:41.888Z,17.83
2018-04-15T08:13:09.600Z,17.72
2018-04-15T08:15:36.635Z,17.88
2018-04-15T08:18:03.644Z,17.86
2018-04-15T08:20:31.411Z,17.92
2018-04-15T08:22:59.257Z,17.98
2018-04-15T08:25:26.240Z,18.19
2018-04-15T08:27:53.266Z,18.47
2018-04-15T08:30:21.013Z,18.65
2018-04-15T08:32:48.310Z,18.58
2018-04-15T08:35:15.366Z,18.66
2018-04-15T08:37:42.493Z,18.64
2018-04-15T08:40:10.330Z,18.64
2018-04-15T08:42:37.373Z,18.70
2018-04-15T08:45:04.506Z,18.60
2018-04-15T08:47:31.558Z,18.66
2018-04-15T08:49:58.633Z,18.67
2018-04-15T08:52:25.745Z,18.50
2018-04-15T08:54:52.818Z,18.43
2018-04-15T08:57:20.693Z,18.39
2018-04-15T08:59:47.797Z,18.33
2018-04-15T09:02:14.848Z,18.23
2018-04-15T09:04:41.948Z,18.18
2018-04-15T09:07:09.737Z,18.10
2018-04-15T09:09:36.777Z,18.11
2018-04-15T09:12:03.865Z,18.27
2018-04-15T09:14:30.968Z,18.70
2018-04-15T09:16:58.778Z,19.08
2018-04-15T09:19:25.850Z,19.37
2018-04-15T09:21:52.910Z,19.64
2018-04-15T09:24:19.989Z,19.97
2018-04-15T09:26:47.042Z,19.90
2018-04-15T09:29:14.072Z,19.79
2018-04-15T09:31:42.554Z,19.98
2018-04-15T09:34:09.615Z,20.08
2018-04-15T09:36:36.722Z,20.50
2018-04-15T09:39:03.972Z,20.52
2018-04-15T09:41:31.072Z,20.76
2018-04-15T09:43:58.156Z,20.96
2018-04-15T09:46:25.311Z,20.98
2018-04-15T09:48:52.403Z,20.73
2018-04-15T09:51:19.514Z,20.49
2018-04-15T09:53:46.609Z,20.34
2018-04-15T09:56:13.689Z,20.14
2018-04-15T09:58:40.792Z,20.10
2018-04-15T10:01:08.673Z,19.80
2018-04-15T10:03:35.783Z,19.75
2018-04-15T10:06:02.888Z,19.78
2018-04-15T10:08:29.958Z,19.61
2018-04-15T10:10:57.030Z,19.48
2018-04-15T10:13:24.871Z,19.50
2018-04-15T10:15:51.965Z,19.43
2018-04-15T10:18:19.780Z,19.33
2018-04-15T10:20:46.985Z,19.46
2018-04-15T10:23:14.806Z,19.39
2018-04-15T10:25:41.885Z,19.40
2018-04-15T10:28:08.946Z,19.23
2018-04-15T10:30:36.851Z,19.29
2018-04-15T10:33:03.939Z,19.35
2018-04-15T10:35:31.026Z,19.31
2018-04-15T10:37:58.112Z,19.33
2018-04-15T10:40:25.172Z,19.34
2018-04-15T10:42:52.267Z,19.37
2018-04-15T10:45:19.357Z,19.40
2018-04-15T10:47:46.405Z,19.45
2018-04-15T10:50:13.471Z,19.22
2018-04-15T10:52:40.553Z,19.18
2018-04-15T10:55:07.603Z,19.18
2018-04-15T10:57:34.685Z,19.25
2018-04-15T11:00:01.748Z,19.32
2018-04-15T11:02:28.818Z,19.44
2018-04-15T11:04:55.846Z,19.57
2018-04-15T11:07:22.891Z,19.72
2018-04-15T11:09:49.963Z,19.89
2018-04-15T11:12:17.011Z,19.88
2018-04-15T11:14:44.846Z,20.25
2018-04-15T11:17:11.890Z,20.15
2018-04-15T11:19:38.942Z,20.20
2018-04-15T11:22:06.031Z,20.22
2018-04-15T11:24:33.816Z,20.28
2018-04-15T11:27:01.623Z,20.26
2018-04-15T11:29:29.628Z,20.32
2018-04-15T11:31:57.423Z,20.38
2018-04-15T11:34:24.519Z,20.48
2018-04-15T11:36:51.603Z,20.47
2018-04-15T11:39:19.417Z,20.34
2018-04-15T11:41:46.495Z,20.25
2018-04-15T11:44:13.601Z,20.22
2018-04-15T11:46:40.673Z,20.03
2018-04-15T11:49:07.741Z,19.75
2018-04-15T11:51:34.889Z,19.69
2018-04-15T11:54:01.911Z,19.59
2018-04-15T11:56:28.998Z,19.45
2018-04-15T11:58:56.852Z,19.57
2018-04-15T12:01:24.680Z,19.57
2018-04-15T12:03:51.770Z,19.47
2018-04-15T12:06:18.817Z,19.29
2018-04-15T12:08:46.677Z,19.33
2018-04-15T12:11:13.777Z,19.35
2018-04-15T12:13:40.802Z,19.40
2018-04-15T12:16:08.603Z,19.36
2018-04-15T12:18:35.693Z,19.40
2018-04-15T12:21:02.768Z,19.44
2018-04-15T12:23:29.836Z,19.58
2018-04-15T12:25:56.911Z,19.53
2018-04-15T12:28:23.984Z,19.50
2018-04-15T12:30:51.079Z,19.61
2018-04-15T12:33:18.125Z,19.68
2018-04-15T12:35:45.217Z,19.91
2018-04-15T12:38:13.059Z,20.01
2018-04-15T12:40:40.149Z,20.16
2018-04-15T12:43:07.217Z,20.24
2018-04-15T12:45:34.324Z,20.37
2018-04-15T12:48:01.385Z,20.36
2018-04-15T12:50:28.516Z,20.62
2018-04-15T12:52:55.628Z,20.60
2018-04-15T12:55:22.976Z,20.56
2018-04-15T12:57:50.109Z,20.68
2018-04-15T13:00:17.262Z,20.85
2018-04-15T13:02:45.154Z,20.87
2018-04-15T13:05:12.242Z,20.76
2018-04-15T13:07:39.326Z,20.84
2018-04-15T13:10:06.384Z,20.94
2018-04-15T13:12:33.419Z,21.06
2018-04-15T13:15:00.521Z,21.01
2018-04-15T13:17:27.618Z,21.44
2018-04-15T13:19:55.448Z,21.47
2018-04-15T13:22:22.499Z,21.55
2018-04-15T13:24:49.553Z,21.55
2018-04-15T13:27:16.625Z,21.44
2018-04-15T13:29:44.458Z,21.32
2018-04-15T13:32:11.529Z,21.28
2018-04-15T13:34:39.393Z,21.16
2018-04-15T13:37:06.444Z,21.11
2018-04-15T13:39:33.551Z,21.21
2018-04-15T13:42:00.620Z,21.27
2018-04-15T13:44:27.688Z,21.27
2018-04-15T13:46:54.729Z,21.54
2018-04-15T13:49:22.536Z,21.61
2018-04-15T13:51:49.592Z,21.75
2018-04-15T13:54:16.690Z,21.69
2018-04-15T13:56:43.788Z,21.48
2018-04-15T13:59:10.874Z,21.50
2018-04-15T14:01:37.973Z,21.59
2018-04-15T14:04:05.064Z,21.53
2018-04-15T14:06:32.146Z,21.57
2018-04-15T14:08:59.946Z,21.57
2018-04-15T14:11:27.066Z,21.54
2018-04-15T14:13:54.878Z,21.59
2018-04-15T14:16:21.933Z,21.62
2018-04-15T14:18:49.008Z,21.74
2018-04-15T14:21:16.166Z,21.62
2018-04-15T14:23:43.282Z,21.70
2018-04-15T14:26:10.402Z,21.82
2018-04-15T14:28:37.513Z,21.78
2018-04-15T14:31:04.593Z,21.80
2018-04-15T14:33:31.678Z,21.68
2018-04-15T14:35:58.779Z,21.73
2018-04-15T14:38:25.832Z,21.59
2018-04-15T14:40:52.954Z,21.54
2018-04-15T14:43:20.039Z,21.54
2018-04-15T14:45:47.149Z,21.57
2018-04-15T14:48:14.256Z,21.54
2018-04-15T14:50:41.359Z,21.48
2018-04-15T14:53:09.174Z,21.47
2018-04-15T14:55:36.267Z,21.50
2018-04-15T14:58:03.357Z,21.64
2018-04-15T15:00:30.466Z,21.66
2018-04-15T15:02:58.344Z,21.65
2018-04-15T15:05:25.561Z,21.44
2018-04-15T15:07:52.724Z,21.39
2018-04-15T15:10:19.931Z,21.63
2018-04-15T15:12:47.014Z,21.94
2018-04-15T15:15:14.101Z,23.08
2018-04-15T15:17:41.185Z,24.14
2018-04-15T15:20:08.329Z,24.49
2018-04-15T15:22:35.316Z,24.71
2018-04-15T15:25:02.354Z,24.82
2018-04-15T15:27:29.418Z,25.06
2018-04-15T15:29:57.357Z,25.15
2018-04-15T15:32:24.434Z,25.12
2018-04-15T15:34:51.429Z,25.36
2018-04-15T15:37:18.461Z,25.28
2018-04-15T15:39:45.686Z,25.36
2018-04-15T15:42:16.211Z,25.10
2018-04-15T15:44:45.579Z,25.00
2018-04-15T15:47:12.681Z,25.04
2018-04-15T15:49:40.651Z,24.48
2018-04-15T15:52:08.471Z,24.57
2018-04-15T15:54:35.611Z,24.42
2018-04-15T15:57:02.621Z,24.45
2018-04-15T15:59:29.701Z,24.37
2018-04-15T16:01:56.683Z,24.32
2018-04-15T16:04:23.721Z,23.99
2018-04-15T16:06:50.796Z,24.07
2018-04-15T16:09:18.646Z,23.80
2018-04-15T16:11:45.662Z,23.44
2018-04-15T16:14:12.812Z,23.46
2018-04-15T16:16:39.976Z,23.37
2018-04-15T16:19:07.003Z,23.32
2018-04-15T16:21:33.998Z,23.19
2018-04-15T16:24:03.238Z,22.76
2018-04-15T16:26:30.661Z,22.30
2018-04-15T16:28:58.471Z,21.85
2018-04-15T16:31:25.541Z,21.57
2018-04-15T16:33:52.578Z,21.37
2018-04-15T16:36:19.618Z,21.22
2018-04-15T16:38:46.623Z,21.08
2018-04-15T16:41:14.444Z,21.01
2018-04-15T16:43:41.444Z,20.91
2018-04-15T16:46:08.493Z,20.75
2018-04-15T16:48:35.543Z,20.55
2018-04-15T16:51:02.551Z,20.51
2018-04-15T16:53:29.605Z,20.44
2018-04-15T16:55:57.395Z,20.31
2018-04-15T16:58:24.643Z,20.22
2018-04-15T17:00:52.416Z,20.09
2018-04-15T17:03:19.463Z,19.97
2018-04-15T17:05:46.536Z,19.95
2018-04-15T17:08:13.593Z,19.74
2018-04-15T17:10:40.677Z,19.59
2018-04-15T17:13:08.468Z,19.53
2018-04-15T17:15:35.532Z,19.32
2018-04-15T17:18:02.545Z,19.13
2018-04-15T17:20:30.342Z,19.05
2018-04-15T17:22:57.419Z,19.06
2018-04-15T17:25:24.448Z,18.86
2018-04-15T17:27:51.502Z,18.98
2018-04-15T17:30:18.550Z,18.72
2018-04-15T17:32:45.552Z,18.60
2018-04-15T17:35:12.594Z,18.42
2018-04-15T17:37:40.352Z,18.23
2018-04-15T17:40:08.128Z,18.09
2018-04-15T17:42:35.854Z,17.96
2018-04-15T17:45:02.903Z,17.94
2018-04-15T17:47:29.904Z,17.95
2018-04-15T17:49:56.887Z,17.85
2018-04-15T17:52:23.948Z,17.72
2018-04-15T17:54:50.965Z,17.63
2018-04-15T17:57:18.772Z,17.56
2018-04-15T17:59:45.793Z,17.71
2018-04-15T18:02:12.810Z,17.74
2018-04-15T18:04:39.823Z,17.89
2018-04-15T18:07:07.625Z,18.20
2018-04-15T18:09:34.608Z,18.28
2018-04-15T18:12:01.641Z,18.23
2018-04-15T18:14:28.638Z,18.20
2018-04-15T18:16:56.358Z,18.13
2018-04-15T18:19:23.413Z,18.01
2018-04-15T18:21:50.445Z,17.91
2018-04-15T18:24:17.423Z,18.02
2018-04-15T18:26:44.461Z,17.96
2018-04-15T18:29:11.529Z,17.92
2018-04-15T18:31:39.362Z,17.92
2018-04-15T18:34:12.378Z,17.78
2018-04-15T18:36:40.144Z,17.68
2018-04-15T18:39:08.881Z,17.47
2018-04-15T18:41:35.941Z,17.35
2018-04-15T18:44:02.941Z,17.23
2018-04-15T18:46:30.761Z,17.32
2018-04-15T18:48:57.844Z,17.40
2018-04-15T18:51:25.599Z,17.31
2018-04-15T18:53:52.752Z,17.23
2018-04-15T18:56:21.520Z,17.24
2018-04-15T18:58:48.624Z,17.16
2018-04-15T19:01:15.682Z,17.42
2018-04-15T19:03:43.534Z,17.26
2018-04-15T19:06:10.612Z,17.33
2018-04-15T19:08:37.821Z,17.38
2018-04-15T19:11:05.591Z,17.31
2018-04-15T19:13:32.658Z,17.34
2018-04-15T19:15:59.764Z,17.15
2018-04-15T19:18:26.864Z,17.01
2018-04-15T19:20:53.975Z,16.87
2018-04-15T19:23:20.987Z,16.83
2018-04-15T19:25:48.014Z,16.68
2018-04-15T19:28:15.428Z,16.62
2018-04-15T19:30:43.245Z,16.62
2018-04-15T19:33:10.314Z,16.52
2018-04-15T19:35:37.424Z,16.46
2018-04-15T19:38:04.847Z,16.39
2018-04-15T19:40:33.582Z,16.26
2018-04-15T19:43:00.636Z,16.19
2018-04-15T19:45:27.700Z,16.06
2018-04-15T19:47:54.841Z,15.92
2018-04-15T19:50:22.120Z,15.80
2018-04-15T19:52:50.719Z,15.64
2018-04-15T19:55:17.961Z,15.45
2018-04-15T19:57:46.146Z,15.37
2018-04-15T20:00:14.766Z,15.30
2018-04-15T20:02:41.834Z,15.21
2018-04-15T20:05:08.996Z,15.14
2018-04-15T20:07:36.020Z,15.02
2018-04-15T20:10:03.228Z,14.86
2018-04-15T20:12:30.305Z,14.87
2018-04-15T20:14:57.320Z,14.98
2018-04-15T20:17:25.059Z,14.93
2018-04-15T20:19:52.124Z,14.93
2018-04-15T20:22:19.922Z,14.91
2018-04-15T20:24:46.932Z,14.83
2018-04-15T20:27:14.805Z,14.74
2018-04-15T20:29:42.614Z,14.61
2018-04-15T20:32:09.603Z,14.47
2018-04-15T20:34:37.479Z,14.47
2018-04-15T20:37:04.590Z,14.52
2018-04-15T20:39:31.669Z,14.67
2018-04-15T20:41:58.771Z,14.62
2018-04-15T20:44:25.846Z,14.44
2018-04-15T20:46:52.916Z,14.24
2018-04-15T20:49:20.794Z,14.16
2018-04-15T20:51:48.646Z,14.13
2018-04-15T20:54:16.449Z,14.05
2018-04-15T20:56:43.481Z,13.96
2018-04-15T20:59:10.501Z,13.89
2018-04-15T21:01:37.501Z,13.78
2018-04-15T21:04:04.606Z,13.65
2018-04-15T21:06:32.491Z,13.69
2018-04-15T21:09:00.241Z,13.62
2018-04-15T21:11:27.982Z,13.52
2018-04-15T21:13:55.024Z,13.44
2018-04-15T21:16:22.051Z,13.37
2018-04-15T21:18:49.043Z,13.36
2018-04-15T21:21:16.804Z,13.33
2018-04-15T21:23:44.597Z,13.28
2018-04-15T21:26:11.633Z,13.28
2018-04-15T21:28:39.024Z,13.25
2018-04-15T21:31:06.038Z,13.27
2018-04-15T21:33:33.161Z,13.19
2018-04-15T21:36:00.196Z,13.24
2018-04-15T21:38:27.271Z,13.17
2018-04-15T21:40:54.271Z,13.11
2018-04-15T21:43:21.313Z,13.32
2018-04-15T21:45:48.425Z,13.24
2018-04-15T21:48:15.608Z,13.38
2018-04-15T21:50:42.713Z,13.27
2018-04-15T21:53:10.578Z,13.14
2018-04-15T21:55:37.688Z,13.01
2018-04-15T21:58:04.788Z,12.97
2018-04-15T22:00:31.938Z,12.93
2018-04-15T22:02:59.988Z,12.88
2018-04-15T22:05:27.933Z,12.84
2018-04-15T22:07:55.013Z,12.98
2018-04-15T22:10:22.093Z,13.14
2018-04-15T22:12:49.345Z,13.26
2018-04-15T22:15:16.471Z,13.32
2018-04-15T22:17:43.535Z,13.50
2018-04-15T22:20:10.590Z,13.34
2018-04-15T22:22:37.680Z,13.13
2018-04-15T22:25:04.793Z,13.45
2018-04-15T22:27:31.958Z,13.40
2018-04-15T22:29:59.003Z,13.19
2018-04-15T22:32:26.056Z,12.98
2018-04-15T22:34:53.142Z,12.89
2018-04-15T22:37:20.934Z,12.73
2018-04-15T22:39:48.051Z,12.62
2018-04-15T22:42:15.113Z,12.54
2018-04-15T22:44:42.951Z,12.46
2018-04-15T22:47:10.004Z,12.35
2018-04-15T22:49:43.130Z,12.24
2018-04-15T22:52:10.176Z,12.19
2018-04-15T22:54:37.256Z,12.06
2018-04-15T22:57:10.417Z,11.90
2018-04-15T22:59:37.517Z,11.88
2018-04-15T23:02:04.623Z,11.85
2018-04-15T23:04:31.653Z,11.76
2018-04-15T23:06:58.728Z,11.66
2018-04-15T23:09:25.798Z,11.57
2018-04-15T23:11:52.917Z,11.54
2018-04-15T23:14:19.941Z,11.86
2018-04-15T23:16:47.001Z,12.05
2018-04-15T23:19:14.039Z,12.19
2018-04-15T23:21:41.086Z,12.32
2018-04-15T23:24:08.139Z,12.74
2018-04-15T23:26:35.228Z,12.80
2018-04-15T23:29:02.277Z,12.42
2018-04-15T23:31:29.318Z,12.59
2018-04-15T23:33:56.331Z,13.06
2018-04-15T23:36:23.360Z,13.03
2018-04-15T23:38:51.191Z,12.82
2018-04-15T23:41:18.213Z,12.27
2018-04-15T23:43:45.332Z,12.26
2018-04-15T23:46:12.339Z,11.88
2018-04-15T23:48:39.476Z,11.86
2018-04-15T23:51:06.526Z,11.58
2018-04-15T23:53:33.569Z,11.27
2018-04-15T23:56:00.591Z,11.26
2018-04-15T23:58:27.670Z,11.16
